x

Cape San Martin - 55nm West Nw Of Morro Bay, Ca (46028) Wave Buoy

8:50am - Tue 19th Sep 2017 All times are PDT. -7 hours from GMT.

  • Sig Wave height 8.2ft
  • Swell Direction
  • Peak Period 7s
  • Average Period 6s
  • Wind
    29mph, 38mph gusts
  • Sea Temp 62°f
  • Air Temp 62°f
  • Sea Pressure 1015.3mb
  • Cape San Martin - 55nm West Nw Of Morro Bay, Ca
  • Cape San Martin - 55nm West Nw Of Morro Bay, Ca

More Historic Weather Station data

Upgrade to MSW Pro to gain access to the past 30 days of data for over 8000 Wavebouys and Weather Stations around the globe.

Join

Comparision Forecast

View Surf forecast
   
Tue 09/19 8:50am 8ft 7s 6s 29 38 mph 1015.3mb 62f 62f
7:50am 7ft 7s 6s 27 36 mph 1015.2mb 61f 62f
6:50am 7ft 7s 5s 31 34 mph 1014.7mb 62f 62f
5:50am 7.5ft 6s 6s 29 36 mph 1014.6mb 62f 62f
4:50am 7ft 6s 6s 29 34 mph 1014.2mb 62f 62f
3:50am 7ft 6s 5s 29 36 mph 1014.3mb 62f 62f
2:50am 6ft 6s 5s 27 31 mph 1015mb 62f 62f
1:50am 6ft 6s 5s 27 34 mph 1014.6mb 62f 62f
12:50am 6ft 6s 5s 27 34 mph 1014.6mb 62f 62f
Mon 09/18 11:50pm 5.5ft 6s 5s 27 31 mph 1014.6mb 62f 63f
10:50pm 5.5ft 5s 5s 27 31 mph 1014.3mb 62f 63f
9:50pm 5ft 5s 5s 27 31 mph 1014.4mb 62f 63f
8:50pm 5ft 5s 5s 27 34 mph 1014.1mb 62f 63f
7:50pm 4.5ft 5s 4s 27 31 mph 1013.4mb 62f 64f
6:50pm 4.5ft 4s 4s 25 29 mph 1013.4mb 62f 63f
5:50pm 4.5ft 5s 4s 25 29 mph 1013.2mb 62f 64f
4:50pm 4.5ft 5s 5s 25 29 mph 1013.4mb 62f 64f
3:50pm 4.5ft 6s 5s 22 27 mph 1013.8mb 62f 64f
2:50pm 5ft 5s 5s 22 29 mph 1014.3mb 62f 64f
1:50pm 5ft 6s 5s 20 25 mph 1014.7mb 62f 64f
12:50pm 4.5ft 6s 5s 20 25 mph 1014.6mb 62f 64f
11:50am 4.5ft 5s 5s 22 27 mph 1014.6mb 62f 63f
10:50am 5ft 6s 5s 20 25 mph 1014.6mb 62f 63f
9:50am 5ft 7s 5s 22 27 mph 1014.5mb 62f 63f
8:50am 5.5ft 7s 5s 25 31 mph 1014.1mb 62f 63f
7:50am 5.5ft 5s 5s 25 29 mph 1013.9mb 62f 64f
6:50am 5ft 7s 5s 22 27 mph 1013.4mb 62f 64f
5:50am 5.5ft 7s 5s 25 29 mph 1013.1mb 63f 64f
4:50am 5ft 8s 5s 22 27 mph 1013.3mb 63f 64f
3:50am 5.5ft 6s 5s 22 29 mph 1013.3mb 63f 64f
2:50am 6ft 6s 6s 22 27 mph 1013.6mb 63f 64f
1:50am 6ft 6s 5s 25 31 mph 1013.6mb 64f 64f
12:50am 6ft 7s 5s 25 29 mph 1013.7mb 64f 63f
Sun 09/17 11:50pm 7ft 6s 6s 27 34 mph 1013.6mb 64f 63f
10:50pm 7ft 6s 5s 27 34 mph 1013.6mb 64f 63f
9:50pm 7.5ft 7s 6s 27 34 mph 1013.7mb 64f 63f
8:50pm 6ft 8s 5s 31 36 mph 1013.3mb 65f 63f
7:50pm 6ft 8s  -  27 31 mph 1013.2mb 65f 63f
6:50pm 6ft 8s 6s 25 29 mph 1013.5mb 65f 63f
5:50pm 5.5ft 8s 6s 22 25 mph 1013.8mb 65f 63f
4:50pm 6ft 8s 6s 20 22 mph 1014.3mb 65f 63f
3:50pm 6ft 8s 6s 18 22 mph 1014.7mb 65f 63f
2:50pm 6ft 8s 6s 16 20 mph 1015.2mb 65f 62f
1:50pm 5.5ft 8s 6s 16 18 mph 1015.6mb 65f 62f
12:50pm 6ft 8s 6s 13 18 mph 1015.8mb 64f 61f
11:50am 5ft 8s 6s 20 22 mph 1016.1mb 64f 61f
10:50am 6ft 7s 6s 16 18 mph 1015.7mb 64f 61f
9:50am 5.5ft 8s 6s 13 18 mph 1015.1mb 64f 60f
8:50am 5ft 7s 6s 16 20 mph 1014.7mb 64f 60f
7:50am 6ft 8s 6s 20 25 mph 1014.2mb 64f 61f
6:50am 6ft 8s 6s 16 18 mph 1013.4mb 64f 61f
5:50am 6ft 8s 6s 16 20 mph 1013mb 64f 61f
4:50am 6ft 8s 6s 18 22 mph 1012.8mb 64f 62f
3:50am 5.5ft 8s 6s 20 22 mph 1012.6mb 64f 62f
2:50am 5.5ft 8s 6s 18 22 mph 1012.4mb 64f 61f
1:50am 5ft 6s 6s 18 22 mph 1012.7mb 64f 61f
12:50am 5ft 7s 6s 16 20 mph 1013mb 64f 61f
Sat 09/16 11:50pm 5ft 8s 6s 13 20 mph 1013.3mb 65f 61f
10:50pm 5ft 8s 6s 16 18 mph 1013.3mb 65f 62f
9:50pm 4.5ft 8s 6s 16 20 mph 1012.8mb 65f 62f
8:50pm 5ft 8s 6s 16 18 mph 1012.2mb 65f 62f
7:50pm 4.5ft 8s 6s 16 20 mph 1011.8mb 65f 62f
6:50pm 4.5ft 8s 6s 18 20 mph 1011.8mb 65f 62f
5:50pm 4.5ft 8s 6s 16 20 mph 1012mb 65f 63f
4:50pm 4ft 8s 6s 16 18 mph 1012.6mb 65f 63f
3:50pm 4.5ft 8s 6s 13 16 mph 1012.9mb 65f 62f
2:50pm 4.5ft 7s 6s 11 16 mph 1013.5mb 65f 62f
1:50pm 4ft 8s 6s 11 11 mph 1014mb 65f 61f
12:50pm 4ft 7s 6s 9 13 mph 1014.5mb 64f 61f
11:50am 4ft 6s 6s 9 11 mph 1014.8mb 64f 61f
10:50am 4ft 7s 6s 7 9 mph 1015.1mb 64f 61f
9:50am 3.5ft 7s 6s 4 9 mph 1014.9mb 64f 61f
8:50am 3.5ft 6s 6s 4 7 mph 1014.4mb 64f 61f
7:50am 3.5ft 7s 6s 4 9 mph 1013.7mb 64f 62f
6:50am 3.5ft 6s 6s 7 11 mph 1013.4mb 64f 62f
5:50am 4ft 6s 6s 9 11 mph 1013.2mb 64f 62f
4:50am 4ft 7s 6s 9 11 mph 1013.1mb 64f 62f
3:50am 4.5ft 7s 5s 11 16 mph 1013mb 64f 62f
2:50am 4.5ft 6s 5s 9 13 mph 1013.1mb 64f 62f
1:50am 5ft 6s 6s 13 18 mph 1012.9mb 64f 62f
12:50am 5ft 7s 5s 16 18 mph 1013mb 64f 62f
Fri 09/15 11:50pm 6ft 7s 6s 16 20 mph 1013.3mb 64f 63f
10:50pm 6ft 7s 6s 20 25 mph 1013.2mb 64f 63f
9:50pm 6ft 7s 6s 20 25 mph 1012.8mb 64f 63f
8:50pm 6.5ft 7s 6s 20 27 mph 1012.5mb 64f 64f
7:50pm 7ft 8s 6s 22 27 mph 1012.5mb 64f 63f
6:50pm 6.5ft 7s 6s 22 27 mph 1012.6mb 64f 63f
5:50pm 6ft 8s 6s 22 27 mph 1013.1mb 64f 64f